sensor_id;sensor_type;location;lat;lon;timestamp;temperature;humidity
11666;DHT22;5889;51.350;6.708;2023-08-30T00:00:21;16.90;99.90
11666;DHT22;5889;51.350;6.708;2023-08-30T00:02:48;16.80;99.90
11666;DHT22;5889;51.350;6.708;2023-08-30T00:05:16;16.80;99.90
11666;DHT22;5889;51.350;6.708;2023-08-30T00:07:43;16.80;99.90
11666;DHT22;5889;51.350;6.708;2023-08-30T00:10:10;16.80;99.90
11666;DHT22;5889;51.350;6.708;2023-08-30T00:12:37;16.80;99.90
11666;DHT22;5889;51.350;6.708;2023-08-30T00:15:05;16.70;99.90
11666;DHT22;5889;51.350;6.708;2023-08-30T00:17:33;16.70;99.90
11666;DHT22;5889;51.350;6.708;2023-08-30T00:20:00;16.60;99.90
11666;DHT22;5889;51.350;6.708;2023-08-30T00:22:28;16.50;99.90
11666;DHT22;5889;51.350;6.708;2023-08-30T00:24:56;16.50;99.90
11666;DHT22;5889;51.350;6.708;2023-08-30T00:27:23;16.50;99.90
11666;DHT22;5889;51.350;6.708;2023-08-30T00:29:50;16.50;99.90
11666;DHT22;5889;51.350;6.708;2023-08-30T00:32:17;16.50;99.90
11666;DHT22;5889;51.350;6.708;2023-08-30T00:34:45;16.50;99.90
11666;DHT22;5889;51.350;6.708;2023-08-30T00:37:12;16.50;99.90
11666;DHT22;5889;51.350;6.708;2023-08-30T00:39:39;16.50;99.90
11666;DHT22;5889;51.350;6.708;2023-08-30T00:42:06;16.50;99.90
11666;DHT22;5889;51.350;6.708;2023-08-30T00:44:33;16.50;99.90
11666;DHT22;5889;51.350;6.708;2023-08-30T00:47:01;16.40;99.90
11666;DHT22;5889;51.350;6.708;2023-08-30T00:49:29;16.40;99.90
11666;DHT22;5889;51.350;6.708;2023-08-30T00:51:59;16.40;99.90
11666;DHT22;5889;51.350;6.708;2023-08-30T00:54:27;16.30;99.90
11666;DHT22;5889;51.350;6.708;2023-08-30T00:56:54;16.30;99.90
11666;DHT22;5889;51.350;6.708;2023-08-30T00:59:22;16.30;99.90
11666;DHT22;5889;51.350;6.708;2023-08-30T01:01:49;16.20;99.90
11666;DHT22;5889;51.350;6.708;2023-08-30T01:04:16;16.20;99.90
11666;DHT22;5889;51.350;6.708;2023-08-30T01:06:44;16.20;99.90
11666;DHT22;5889;51.350;6.708;2023-08-30T01:09:13;16.20;99.90
11666;DHT22;5889;51.350;6.708;2023-08-30T01:11:43;16.20;99.90
11666;DHT22;5889;51.350;6.708;2023-08-30T01:14:16;16.10;99.90
11666;DHT22;5889;51.350;6.708;2023-08-30T01:16:45;16.10;99.90
11666;DHT22;5889;51.350;6.708;2023-08-30T01:19:26;16.10;99.90
11666;DHT22;5889;51.350;6.708;2023-08-30T01:22:05;16.10;99.90
11666;DHT22;5889;51.350;6.708;2023-08-30T01:24:44;16.00;99.90
11666;DHT22;5889;51.350;6.708;2023-08-30T01:27:15;16.00;99.90
11666;DHT22;5889;51.350;6.708;2023-08-30T01:29:44;15.90;99.90
11666;DHT22;5889;51.350;6.708;2023-08-30T01:32:12;15.90;99.90
11666;DHT22;5889;51.350;6.708;2023-08-30T01:34:39;15.90;99.90
11666;DHT22;5889;51.350;6.708;2023-08-30T01:37:08;16.00;99.90
11666;DHT22;5889;51.350;6.708;2023-08-30T01:39:36;15.90;99.90
11666;DHT22;5889;51.350;6.708;2023-08-30T01:42:05;16.00;99.90
11666;DHT22;5889;51.350;6.708;2023-08-30T01:44:34;16.00;99.90
11666;DHT22;5889;51.350;6.708;2023-08-30T01:47:02;15.90;99.90
11666;DHT22;5889;51.350;6.708;2023-08-30T01:49:30;15.80;99.90
11666;DHT22;5889;51.350;6.708;2023-08-30T01:51:59;15.80;99.90
11666;DHT22;5889;51.350;6.708;2023-08-30T01:54:28;15.70;99.90
11666;DHT22;5889;51.350;6.708;2023-08-30T01:56:55;15.70;99.90
11666;DHT22;5889;51.350;6.708;2023-08-30T01:59:23;15.80;99.90
11666;DHT22;5889;51.350;6.708;2023-08-30T02:01:52;15.80;99.90
11666;DHT22;5889;51.350;6.708;2023-08-30T02:04:19;15.80;99.90
11666;DHT22;5889;51.350;6.708;2023-08-30T02:06:52;15.80;99.90
11666;DHT22;5889;51.350;6.708;2023-08-30T02:09:25;15.80;99.90
11666;DHT22;5889;51.350;6.708;2023-08-30T02:11:54;15.80;99.90
11666;DHT22;5889;51.350;6.708;2023-08-30T02:14:22;15.80;99.90
11666;DHT22;5889;51.350;6.708;2023-08-30T02:16:52;15.80;99.90
11666;DHT22;5889;51.350;6.708;2023-08-30T02:19:22;15.80;99.90
11666;DHT22;5889;51.350;6.708;2023-08-30T02:21:49;15.70;99.90
11666;DHT22;5889;51.350;6.708;2023-08-30T02:24:16;15.80;99.90
11666;DHT22;5889;51.350;6.708;2023-08-30T02:26:43;15.70;99.90
11666;DHT22;5889;51.350;6.708;2023-08-30T02:29:10;15.70;99.90
11666;DHT22;5889;51.350;6.708;2023-08-30T02:31:38;15.70;99.90
11666;DHT22;5889;51.350;6.708;2023-08-30T02:34:07;15.60;99.90
11666;DHT22;5889;51.350;6.708;2023-08-30T02:36:34;15.60;99.90
11666;DHT22;5889;51.350;6.708;2023-08-30T02:39:01;15.60;99.90
11666;DHT22;5889;51.350;6.708;2023-08-30T02:41:29;15.60;99.90
11666;DHT22;5889;51.350;6.708;2023-08-30T02:43:56;15.50;99.90
11666;DHT22;5889;51.350;6.708;2023-08-30T02:46:22;15.50;99.90
11666;DHT22;5889;51.350;6.708;2023-08-30T02:48:49;15.50;99.90
11666;DHT22;5889;51.350;6.708;2023-08-30T02:51:18;15.50;99.90
11666;DHT22;5889;51.350;6.708;2023-08-30T02:53:45;15.40;99.90
11666;DHT22;5889;51.350;6.708;2023-08-30T02:56:11;15.50;99.90
11666;DHT22;5889;51.350;6.708;2023-08-30T02:58:38;15.40;99.90
11666;DHT22;5889;51.350;6.708;2023-08-30T03:01:05;15.40;99.90
11666;DHT22;5889;51.350;6.708;2023-08-30T03:03:32;15.40;99.90
11666;DHT22;5889;51.350;6.708;2023-08-30T03:06:00;15.40;99.90
11666;DHT22;5889;51.350;6.708;2023-08-30T03:08:29;15.30;99.90
11666;DHT22;5889;51.350;6.708;2023-08-30T03:11:06;15.30;99.90
11666;DHT22;5889;51.350;6.708;2023-08-30T03:13:33;15.30;99.90
11666;DHT22;5889;51.350;6.708;2023-08-30T03:16:00;15.30;99.90
11666;DHT22;5889;51.350;6.708;2023-08-30T03:18:27;15.30;99.90
11666;DHT22;5889;51.350;6.708;2023-08-30T03:21:00;15.30;99.90
11666;DHT22;5889;51.350;6.708;2023-08-30T03:23:29;15.20;99.90
11666;DHT22;5889;51.350;6.708;2023-08-30T03:25:57;15.20;99.90
11666;DHT22;5889;51.350;6.708;2023-08-30T03:28:24;15.20;99.90
11666;DHT22;5889;51.350;6.708;2023-08-30T03:30:51;15.20;99.90
11666;DHT22;5889;51.350;6.708;2023-08-30T03:33:17;15.10;99.90
11666;DHT22;5889;51.350;6.708;2023-08-30T03:35:44;15.10;99.90
11666;DHT22;5889;51.350;6.708;2023-08-30T03:38:11;15.10;99.90
11666;DHT22;5889;51.350;6.708;2023-08-30T03:40:39;15.10;99.90
11666;DHT22;5889;51.350;6.708;2023-08-30T03:43:06;15.10;99.90
11666;DHT22;5889;51.350;6.708;2023-08-30T03:45:35;15.10;99.90
11666;DHT22;5889;51.350;6.708;2023-08-30T03:48:02;15.10;99.90
11666;DHT22;5889;51.350;6.708;2023-08-30T03:50:30;15.00;99.90
11666;DHT22;5889;51.350;6.708;2023-08-30T03:52:56;15.00;99.90
11666;DHT22;5889;51.350;6.708;2023-08-30T03:55:23;15.00;99.90
11666;DHT22;5889;51.350;6.708;2023-08-30T03:57:52;15.00;99.90
11666;DHT22;5889;51.350;6.708;2023-08-30T04:00:19;15.00;99.90
11666;DHT22;5889;51.350;6.708;2023-08-30T04:02:46;14.90;99.90
11666;DHT22;5889;51.350;6.708;2023-08-30T04:05:13;14.90;99.90
11666;DHT22;5889;51.350;6.708;2023-08-30T04:07:39;14.80;99.90
11666;DHT22;5889;51.350;6.708;2023-08-30T04:10:07;14.70;99.90
11666;DHT22;5889;51.350;6.708;2023-08-30T04:12:35;14.80;99.90
11666;DHT22;5889;51.350;6.708;2023-08-30T04:15:03;14.70;99.90
11666;DHT22;5889;51.350;6.708;2023-08-30T04:17:30;14.70;99.90
11666;DHT22;5889;51.350;6.708;2023-08-30T04:19:57;14.70;99.90
11666;DHT22;5889;51.350;6.708;2023-08-30T04:22:24;14.70;99.90
11666;DHT22;5889;51.350;6.708;2023-08-30T04:24:51;14.60;99.90
11666;DHT22;5889;51.350;6.708;2023-08-30T04:27:18;14.60;99.90
11666;DHT22;5889;51.350;6.708;2023-08-30T04:29:45;14.60;99.90
11666;DHT22;5889;51.350;6.708;2023-08-30T04:32:14;14.60;99.90
11666;DHT22;5889;51.350;6.708;2023-08-30T04:34:41;14.50;99.90
11666;DHT22;5889;51.350;6.708;2023-08-30T04:37:08;14.50;99.90
11666;DHT22;5889;51.350;6.708;2023-08-30T04:39:35;14.40;99.90
11666;DHT22;5889;51.350;6.708;2023-08-30T04:42:02;14.40;99.90
11666;DHT22;5889;51.350;6.708;2023-08-30T04:44:29;14.40;99.90
11666;DHT22;5889;51.350;6.708;2023-08-30T04:46:57;14.40;99.90
11666;DHT22;5889;51.350;6.708;2023-08-30T04:49:26;14.40;99.90
11666;DHT22;5889;51.350;6.708;2023-08-30T04:51:54;14.40;99.90
11666;DHT22;5889;51.350;6.708;2023-08-30T04:54:21;14.30;99.90
11666;DHT22;5889;51.350;6.708;2023-08-30T04:56:48;14.30;99.90
11666;DHT22;5889;51.350;6.708;2023-08-30T04:59:16;14.40;99.90
11666;DHT22;5889;51.350;6.708;2023-08-30T05:01:43;14.40;99.90
11666;DHT22;5889;51.350;6.708;2023-08-30T05:04:10;14.40;99.90
11666;DHT22;5889;51.350;6.708;2023-08-30T05:06:38;14.40;99.90
11666;DHT22;5889;51.350;6.708;2023-08-30T05:09:05;14.40;99.90
11666;DHT22;5889;51.350;6.708;2023-08-30T05:11:33;14.40;99.90
11666;DHT22;5889;51.350;6.708;2023-08-30T05:14:00;14.40;99.90
11666;DHT22;5889;51.350;6.708;2023-08-30T05:16:27;14.50;99.90
11666;DHT22;5889;51.350;6.708;2023-08-30T05:18:53;14.50;99.90
11666;DHT22;5889;51.350;6.708;2023-08-30T05:21:20;14.50;99.90
11666;DHT22;5889;51.350;6.708;2023-08-30T05:23:49;14.50;99.90
11666;DHT22;5889;51.350;6.708;2023-08-30T05:26:16;14.60;99.90
11666;DHT22;5889;51.350;6.708;2023-08-30T05:28:45;14.70;99.90
11666;DHT22;5889;51.350;6.708;2023-08-30T05:31:11;14.70;99.90
11666;DHT22;5889;51.350;6.708;2023-08-30T05:33:38;14.70;99.90
11666;DHT22;5889;51.350;6.708;2023-08-30T05:36:08;14.80;99.90
11666;DHT22;5889;51.350;6.708;2023-08-30T05:38:35;14.80;99.90
11666;DHT22;5889;51.350;6.708;2023-08-30T05:41:03;14.90;99.90
11666;DHT22;5889;51.350;6.708;2023-08-30T05:43:30;14.90;99.90
11666;DHT22;5889;51.350;6.708;2023-08-30T05:45:57;15.00;99.90
11666;DHT22;5889;51.350;6.708;2023-08-30T05:48:28;15.10;99.90
11666;DHT22;5889;51.350;6.708;2023-08-30T05:50:55;15.20;99.90
11666;DHT22;5889;51.350;6.708;2023-08-30T05:53:22;15.20;99.90
11666;DHT22;5889;51.350;6.708;2023-08-30T05:55:49;15.30;99.90
11666;DHT22;5889;51.350;6.708;2023-08-30T05:58:17;15.40;99.90
11666;DHT22;5889;51.350;6.708;2023-08-30T06:00:45;15.50;99.90
11666;DHT22;5889;51.350;6.708;2023-08-30T06:03:12;15.60;99.90
11666;DHT22;5889;51.350;6.708;2023-08-30T06:05:39;15.70;99.90
11666;DHT22;5889;51.350;6.708;2023-08-30T06:08:06;15.80;99.90
11666;DHT22;5889;51.350;6.708;2023-08-30T06:10:33;15.80;99.90
11666;DHT22;5889;51.350;6.708;2023-08-30T06:13:00;15.90;99.90
11666;DHT22;5889;51.350;6.708;2023-08-30T06:15:29;16.00;99.90
11666;DHT22;5889;51.350;6.708;2023-08-30T06:17:56;16.10;99.90
11666;DHT22;5889;51.350;6.708;2023-08-30T06:20:24;16.20;99.90
11666;DHT22;5889;51.350;6.708;2023-08-30T06:22:51;16.30;99.90
11666;DHT22;5889;51.350;6.708;2023-08-30T06:25:18;16.40;99.90
11666;DHT22;5889;51.350;6.708;2023-08-30T06:27:56;16.40;99.90
11666;DHT22;5889;51.350;6.708;2023-08-30T06:30:24;16.50;99.90
11666;DHT22;5889;51.350;6.708;2023-08-30T06:32:52;16.60;99.90
11666;DHT22;5889;51.350;6.708;2023-08-30T06:35:19;16.60;99.90
11666;DHT22;5889;51.350;6.708;2023-08-30T06:37:46;16.60;99.90
11666;DHT22;5889;51.350;6.708;2023-08-30T06:40:13;16.60;99.90
11666;DHT22;5889;51.350;6.708;2023-08-30T06:42:40;16.70;99.90
11666;DHT22;5889;51.350;6.708;2023-08-30T06:45:08;16.80;99.90
11666;DHT22;5889;51.350;6.708;2023-08-30T06:47:35;16.80;99.90
11666;DHT22;5889;51.350;6.708;2023-08-30T06:50:04;16.90;99.90
11666;DHT22;5889;51.350;6.708;2023-08-30T06:52:31;17.00;99.90
11666;DHT22;5889;51.350;6.708;2023-08-30T06:54:58;17.10;99.90
11666;DHT22;5889;51.350;6.708;2023-08-30T06:57:25;17.10;99.90
11666;DHT22;5889;51.350;6.708;2023-08-30T06:59:51;17.20;99.90
11666;DHT22;5889;51.350;6.708;2023-08-30T07:02:18;17.30;99.90
11666;DHT22;5889;51.350;6.708;2023-08-30T07:04:45;17.30;99.90
11666;DHT22;5889;51.350;6.708;2023-08-30T07:07:14;17.30;99.90
11666;DHT22;5889;51.350;6.708;2023-08-30T07:09:41;17.40;99.90
11666;DHT22;5889;51.350;6.708;2023-08-30T07:12:08;17.40;99.90
11666;DHT22;5889;51.350;6.708;2023-08-30T07:14:35;17.50;99.90
11666;DHT22;5889;51.350;6.708;2023-08-30T07:17:02;17.60;99.90
11666;DHT22;5889;51.350;6.708;2023-08-30T07:19:29;17.60;99.90
11666;DHT22;5889;51.350;6.708;2023-08-30T07:21:56;17.80;99.90
11666;DHT22;5889;51.350;6.708;2023-08-30T07:24:24;17.80;99.90
11666;DHT22;5889;51.350;6.708;2023-08-30T07:26:51;17.90;99.90
11666;DHT22;5889;51.350;6.708;2023-08-30T07:29:18;18.00;99.90
11666;DHT22;5889;51.350;6.708;2023-08-30T07:31:45;18.00;99.90
11666;DHT22;5889;51.350;6.708;2023-08-30T07:34:12;18.00;99.90
11666;DHT22;5889;51.350;6.708;2023-08-30T07:36:39;18.10;99.90
11666;DHT22;5889;51.350;6.708;2023-08-30T07:39:06;18.20;99.90
11666;DHT22;5889;51.350;6.708;2023-08-30T07:41:34;18.30;99.90
11666;DHT22;5889;51.350;6.708;2023-08-30T07:44:01;18.40;99.90
11666;DHT22;5889;51.350;6.708;2023-08-30T07:46:28;18.60;99.90
11666;DHT22;5889;51.350;6.708;2023-08-30T07:48:55;18.80;99.90
11666;DHT22;5889;51.350;6.708;2023-08-30T07:51:22;18.90;99.90
11666;DHT22;5889;51.350;6.708;2023-08-30T07:53:49;19.00;99.90
11666;DHT22;5889;51.350;6.708;2023-08-30T07:56:16;19.20;99.90
11666;DHT22;5889;51.350;6.708;2023-08-30T07:58:44;19.20;99.90
11666;DHT22;5889;51.350;6.708;2023-08-30T08:01:11;19.30;99.90
11666;DHT22;5889;51.350;6.708;2023-08-30T08:03:38;19.30;99.90
11666;DHT22;5889;51.350;6.708;2023-08-30T08:06:06;19.40;99.90
11666;DHT22;5889;51.350;6.708;2023-08-30T08:08:33;19.60;99.90
11666;DHT22;5889;51.350;6.708;2023-08-30T08:11:00;19.60;99.90
11666;DHT22;5889;51.350;6.708;2023-08-30T08:13:27;19.60;99.90
11666;DHT22;5889;51.350;6.708;2023-08-30T08:15:57;19.70;99.90
11666;DHT22;5889;51.350;6.708;2023-08-30T08:18:24;19.70;99.90
11666;DHT22;5889;51.350;6.708;2023-08-30T08:20:52;19.80;99.90
11666;DHT22;5889;51.350;6.708;2023-08-30T08:23:19;19.80;99.90
11666;DHT22;5889;51.350;6.708;2023-08-30T08:25:46;19.70;99.90
11666;DHT22;5889;51.350;6.708;2023-08-30T08:28:13;19.70;99.90
11666;DHT22;5889;51.350;6.708;2023-08-30T08:30:41;19.90;99.90
11666;DHT22;5889;51.350;6.708;2023-08-30T08:33:12;20.10;99.90
11666;DHT22;5889;51.350;6.708;2023-08-30T08:35:39;20.20;99.90
11666;DHT22;5889;51.350;6.708;2023-08-30T08:38:05;20.40;99.90
11666;DHT22;5889;51.350;6.708;2023-08-30T08:40:36;20.50;99.90
11666;DHT22;5889;51.350;6.708;2023-08-30T08:43:04;20.60;99.90
11666;DHT22;5889;51.350;6.708;2023-08-30T08:45:34;20.70;99.90
11666;DHT22;5889;51.350;6.708;2023-08-30T08:48:03;20.60;99.90
11666;DHT22;5889;51.350;6.708;2023-08-30T08:50:32;20.60;99.90
11666;DHT22;5889;51.350;6.708;2023-08-30T08:52:59;20.50;99.90
11666;DHT22;5889;51.350;6.708;2023-08-30T08:55:28;20.30;99.90
11666;DHT22;5889;51.350;6.708;2023-08-30T08:57:57;20.20;99.90
11666;DHT22;5889;51.350;6.708;2023-08-30T09:00:25;20.00;99.90
11666;DHT22;5889;51.350;6.708;2023-08-30T09:02:53;19.90;99.90
11666;DHT22;5889;51.350;6.708;2023-08-30T09:05:21;19.90;99.90
11666;DHT22;5889;51.350;6.708;2023-08-30T09:07:50;19.90;99.90
11666;DHT22;5889;51.350;6.708;2023-08-30T09:10:20;19.80;99.90
11666;DHT22;5889;51.350;6.708;2023-08-30T09:12:47;19.70;99.90
11666;DHT22;5889;51.350;6.708;2023-08-30T09:15:14;19.70;99.90
11666;DHT22;5889;51.350;6.708;2023-08-30T09:17:41;19.70;99.90
11666;DHT22;5889;51.350;6.708;2023-08-30T09:20:10;19.70;99.90
11666;DHT22;5889;51.350;6.708;2023-08-30T09:22:38;19.50;99.90
11666;DHT22;5889;51.350;6.708;2023-08-30T09:25:08;19.40;99.90
11666;DHT22;5889;51.350;6.708;2023-08-30T09:27:36;19.30;99.90
11666;DHT22;5889;51.350;6.708;2023-08-30T09:30:05;19.20;99.90
11666;DHT22;5889;51.350;6.708;2023-08-30T09:32:39;19.20;99.90
11666;DHT22;5889;51.350;6.708;2023-08-30T09:35:07;19.10;99.90
11666;DHT22;5889;51.350;6.708;2023-08-30T09:37:34;19.10;99.90
11666;DHT22;5889;51.350;6.708;2023-08-30T09:40:01;19.00;99.90
11666;DHT22;5889;51.350;6.708;2023-08-30T09:42:30;19.00;99.90
11666;DHT22;5889;51.350;6.708;2023-08-30T09:44:57;19.00;99.90
11666;DHT22;5889;51.350;6.708;2023-08-30T09:47:24;18.90;99.90
11666;DHT22;5889;51.350;6.708;2023-08-30T09:49:54;18.70;99.90
11666;DHT22;5889;51.350;6.708;2023-08-30T09:52:24;18.50;99.90
11666;DHT22;5889;51.350;6.708;2023-08-30T09:54:51;18.50;99.90
11666;DHT22;5889;51.350;6.708;2023-08-30T09:57:19;18.30;99.90
11666;DHT22;5889;51.350;6.708;2023-08-30T09:59:49;18.30;99.90
11666;DHT22;5889;51.350;6.708;2023-08-30T10:02:18;18.20;99.90
11666;DHT22;5889;51.350;6.708;2023-08-30T10:04:45;18.20;99.90
11666;DHT22;5889;51.350;6.708;2023-08-30T10:07:13;18.30;99.90
11666;DHT22;5889;51.350;6.708;2023-08-30T10:09:41;18.20;99.90
11666;DHT22;5889;51.350;6.708;2023-08-30T10:12:10;18.20;99.90
11666;DHT22;5889;51.350;6.708;2023-08-30T10:14:37;18.30;99.90
11666;DHT22;5889;51.350;6.708;2023-08-30T10:17:05;18.30;99.90
11666;DHT22;5889;51.350;6.708;2023-08-30T10:19:34;18.30;99.90
11666;DHT22;5889;51.350;6.708;2023-08-30T10:22:04;18.20;99.90
11666;DHT22;5889;51.350;6.708;2023-08-30T10:24:39;18.20;99.90
11666;DHT22;5889;51.350;6.708;2023-08-30T10:27:08;18.10;99.90
11666;DHT22;5889;51.350;6.708;2023-08-30T10:29:37;18.00;99.90
11666;DHT22;5889;51.350;6.708;2023-08-30T10:32:06;18.00;99.90
11666;DHT22;5889;51.350;6.708;2023-08-30T10:34:34;18.00;99.90
11666;DHT22;5889;51.350;6.708;2023-08-30T10:37:05;17.90;99.90
11666;DHT22;5889;51.350;6.708;2023-08-30T10:39:37;17.80;99.90
11666;DHT22;5889;51.350;6.708;2023-08-30T10:42:08;17.70;99.90
11666;DHT22;5889;51.350;6.708;2023-08-30T10:44:46;17.60;99.90
11666;DHT22;5889;51.350;6.708;2023-08-30T10:47:19;17.40;99.90
11666;DHT22;5889;51.350;6.708;2023-08-30T10:49:49;17.30;99.90
11666;DHT22;5889;51.350;6.708;2023-08-30T10:52:16;17.30;99.90
11666;DHT22;5889;51.350;6.708;2023-08-30T10:54:43;17.20;99.90
11666;DHT22;5889;51.350;6.708;2023-08-30T10:57:14;17.20;99.90
11666;DHT22;5889;51.350;6.708;2023-08-30T11:02:32;17.20;99.90
11666;DHT22;5889;51.350;6.708;2023-08-30T11:04:59;17.10;99.90
11666;DHT22;5889;51.350;6.708;2023-08-30T11:07:26;17.00;99.90
11666;DHT22;5889;51.350;6.708;2023-08-30T11:09:53;17.00;99.90
11666;DHT22;5889;51.350;6.708;2023-08-30T11:12:20;17.00;99.90
11666;DHT22;5889;51.350;6.708;2023-08-30T11:14:48;16.90;99.90
11666;DHT22;5889;51.350;6.708;2023-08-30T11:17:16;17.00;99.90
11666;DHT22;5889;51.350;6.708;2023-08-30T11:19:45;17.00;99.90
11666;DHT22;5889;51.350;6.708;2023-08-30T11:22:12;17.10;99.90
11666;DHT22;5889;51.350;6.708;2023-08-30T11:24:40;17.20;99.90
11666;DHT22;5889;51.350;6.708;2023-08-30T11:27:08;17.20;99.90
11666;DHT22;5889;51.350;6.708;2023-08-30T11:29:35;17.20;99.90
11666;DHT22;5889;51.350;6.708;2023-08-30T11:32:02;17.20;99.90
11666;DHT22;5889;51.350;6.708;2023-08-30T11:34:29;17.20;99.90
11666;DHT22;5889;51.350;6.708;2023-08-30T11:36:58;17.30;99.90
11666;DHT22;5889;51.350;6.708;2023-08-30T11:39:28;17.40;99.90
11666;DHT22;5889;51.350;6.708;2023-08-30T11:41:56;17.40;99.90
11666;DHT22;5889;51.350;6.708;2023-08-30T11:44:24;17.40;99.90
11666;DHT22;5889;51.350;6.708;2023-08-30T11:46:57;17.40;99.90
11666;DHT22;5889;51.350;6.708;2023-08-30T11:49:24;17.50;99.90
11666;DHT22;5889;51.350;6.708;2023-08-30T11:51:54;17.60;99.90
11666;DHT22;5889;51.350;6.708;2023-08-30T11:54:26;17.70;99.90
11666;DHT22;5889;51.350;6.708;2023-08-30T11:56:53;17.70;99.90
11666;DHT22;5889;51.350;6.708;2023-08-30T11:59:21;17.80;99.90
11666;DHT22;5889;51.350;6.708;2023-08-30T12:01:48;17.80;99.90
11666;DHT22;5889;51.350;6.708;2023-08-30T12:04:15;17.80;99.90
11666;DHT22;5889;51.350;6.708;2023-08-30T12:06:44;17.80;99.90
11666;DHT22;5889;51.350;6.708;2023-08-30T12:09:14;17.80;99.90
11666;DHT22;5889;51.350;6.708;2023-08-30T12:11:42;17.90;99.90
11666;DHT22;5889;51.350;6.708;2023-08-30T12:14:09;17.90;99.90
11666;DHT22;5889;51.350;6.708;2023-08-30T12:16:36;17.90;99.90
11666;DHT22;5889;51.350;6.708;2023-08-30T12:19:10;17.80;99.90
11666;DHT22;5889;51.350;6.708;2023-08-30T12:21:41;17.80;99.90
11666;DHT22;5889;51.350;6.708;2023-08-30T12:24:08;17.70;99.90
11666;DHT22;5889;51.350;6.708;2023-08-30T12:26:35;17.60;99.90
11666;DHT22;5889;51.350;6.708;2023-08-30T12:29:05;17.50;99.90
11666;DHT22;5889;51.350;6.708;2023-08-30T12:31:32;17.50;99.90
11666;DHT22;5889;51.350;6.708;2023-08-30T12:33:59;17.50;99.90
11666;DHT22;5889;51.350;6.708;2023-08-30T12:36:26;17.50;99.90
11666;DHT22;5889;51.350;6.708;2023-08-30T12:38:53;17.40;99.90
11666;DHT22;5889;51.350;6.708;2023-08-30T12:41:20;17.40;99.90
11666;DHT22;5889;51.350;6.708;2023-08-30T12:43:49;17.30;99.90
11666;DHT22;5889;51.350;6.708;2023-08-30T12:46:19;17.30;99.90
11666;DHT22;5889;51.350;6.708;2023-08-30T12:48:46;17.20;99.90
11666;DHT22;5889;51.350;6.708;2023-08-30T12:51:13;17.30;99.90
11666;DHT22;5889;51.350;6.708;2023-08-30T12:53:40;17.30;99.90
11666;DHT22;5889;51.350;6.708;2023-08-30T12:56:07;17.40;99.90
11666;DHT22;5889;51.350;6.708;2023-08-30T12:58:34;17.40;99.90
11666;DHT22;5889;51.350;6.708;2023-08-30T13:01:01;17.40;99.90
11666;DHT22;5889;51.350;6.708;2023-08-30T13:03:31;17.40;99.90
11666;DHT22;5889;51.350;6.708;2023-08-30T13:05:58;17.30;99.90
11666;DHT22;5889;51.350;6.708;2023-08-30T13:08:25;17.30;99.90
11666;DHT22;5889;51.350;6.708;2023-08-30T13:10:52;17.20;99.90
11666;DHT22;5889;51.350;6.708;2023-08-30T13:13:18;17.20;99.90
11666;DHT22;5889;51.350;6.708;2023-08-30T13:15:47;17.20;99.90
11666;DHT22;5889;51.350;6.708;2023-08-30T13:18:14;17.20;99.90
11666;DHT22;5889;51.350;6.708;2023-08-30T13:20:43;17.20;99.90
11666;DHT22;5889;51.350;6.708;2023-08-30T13:23:10;17.30;99.90
11666;DHT22;5889;51.350;6.708;2023-08-30T13:25:39;17.30;99.90
11666;DHT22;5889;51.350;6.708;2023-08-30T13:28:06;17.40;99.90
11666;DHT22;5889;51.350;6.708;2023-08-30T13:30:34;17.50;99.90
11666;DHT22;5889;51.350;6.708;2023-08-30T13:33:00;17.60;99.90
11666;DHT22;5889;51.350;6.708;2023-08-30T13:35:27;17.50;99.90
11666;DHT22;5889;51.350;6.708;2023-08-30T13:37:56;17.50;99.90
11666;DHT22;5889;51.350;6.708;2023-08-30T13:40:23;17.50;99.90
11666;DHT22;5889;51.350;6.708;2023-08-30T13:42:50;17.50;99.90
11666;DHT22;5889;51.350;6.708;2023-08-30T13:45:16;17.50;99.90
11666;DHT22;5889;51.350;6.708;2023-08-30T13:47:43;17.50;99.90
11666;DHT22;5889;51.350;6.708;2023-08-30T13:50:12;17.50;99.90
11666;DHT22;5889;51.350;6.708;2023-08-30T13:52:39;17.40;99.90
11666;DHT22;5889;51.350;6.708;2023-08-30T13:55:10;17.40;99.90
11666;DHT22;5889;51.350;6.708;2023-08-30T13:57:38;17.40;99.90
11666;DHT22;5889;51.350;6.708;2023-08-30T14:00:06;17.30;99.90
11666;DHT22;5889;51.350;6.708;2023-08-30T14:02:35;17.30;99.90
11666;DHT22;5889;51.350;6.708;2023-08-30T14:05:02;17.20;99.90
11666;DHT22;5889;51.350;6.708;2023-08-30T14:07:29;17.20;99.90
11666;DHT22;5889;51.350;6.708;2023-08-30T14:09:56;17.30;99.90
11666;DHT22;5889;51.350;6.708;2023-08-30T14:12:24;17.30;99.90
11666;DHT22;5889;51.350;6.708;2023-08-30T14:14:51;17.40;99.90
11666;DHT22;5889;51.350;6.708;2023-08-30T14:17:19;17.40;99.90
11666;DHT22;5889;51.350;6.708;2023-08-30T14:19:46;17.40;99.90
11666;DHT22;5889;51.350;6.708;2023-08-30T14:22:13;17.50;99.90
11666;DHT22;5889;51.350;6.708;2023-08-30T14:24:40;17.50;99.90
11666;DHT22;5889;51.350;6.708;2023-08-30T14:27:07;17.40;99.90
11666;DHT22;5889;51.350;6.708;2023-08-30T14:29:35;17.40;99.90
11666;DHT22;5889;51.350;6.708;2023-08-30T14:32:03;17.40;99.90
11666;DHT22;5889;51.350;6.708;2023-08-30T14:34:30;17.50;99.90
11666;DHT22;5889;51.350;6.708;2023-08-30T14:36:57;17.40;99.90
11666;DHT22;5889;51.350;6.708;2023-08-30T14:39:24;17.30;99.90
11666;DHT22;5889;51.350;6.708;2023-08-30T14:41:51;17.20;99.90
11666;DHT22;5889;51.350;6.708;2023-08-30T14:44:18;17.20;99.90
11666;DHT22;5889;51.350;6.708;2023-08-30T14:46:47;17.10;99.90
11666;DHT22;5889;51.350;6.708;2023-08-30T14:49:15;17.00;99.90
11666;DHT22;5889;51.350;6.708;2023-08-30T14:51:42;17.00;99.90
11666;DHT22;5889;51.350;6.708;2023-08-30T14:54:09;17.10;99.90
11666;DHT22;5889;51.350;6.708;2023-08-30T14:56:36;17.10;99.90
11666;DHT22;5889;51.350;6.708;2023-08-30T14:59:03;17.00;99.90
11666;DHT22;5889;51.350;6.708;2023-08-30T15:01:30;17.00;99.90
11666;DHT22;5889;51.350;6.708;2023-08-30T15:03:58;17.00;99.90
11666;DHT22;5889;51.350;6.708;2023-08-30T15:06:25;17.00;99.90
11666;DHT22;5889;51.350;6.708;2023-08-30T15:08:52;17.00;99.90
11666;DHT22;5889;51.350;6.708;2023-08-30T15:11:18;17.00;99.90
11666;DHT22;5889;51.350;6.708;2023-08-30T15:13:45;17.00;99.90
11666;DHT22;5889;51.350;6.708;2023-08-30T15:16:12;17.10;99.90
11666;DHT22;5889;51.350;6.708;2023-08-30T15:18:39;17.20;99.90
11666;DHT22;5889;51.350;6.708;2023-08-30T15:21:07;17.30;99.90
11666;DHT22;5889;51.350;6.708;2023-08-30T15:23:34;17.30;99.90
11666;DHT22;5889;51.350;6.708;2023-08-30T15:26:03;17.50;99.90
11666;DHT22;5889;51.350;6.708;2023-08-30T15:28:30;17.90;99.90
11666;DHT22;5889;51.350;6.708;2023-08-30T15:30:57;18.20;99.90
11666;DHT22;5889;51.350;6.708;2023-08-30T15:33:24;18.40;99.90
11666;DHT22;5889;51.350;6.708;2023-08-30T15:35:52;18.60;99.90
11666;DHT22;5889;51.350;6.708;2023-08-30T15:38:21;18.70;99.90
11666;DHT22;5889;51.350;6.708;2023-08-30T15:40:53;18.80;99.90
11666;DHT22;5889;51.350;6.708;2023-08-30T15:43:20;18.90;99.90
11666;DHT22;5889;51.350;6.708;2023-08-30T15:45:47;19.00;99.90
11666;DHT22;5889;51.350;6.708;2023-08-30T15:48:14;19.00;99.90
11666;DHT22;5889;51.350;6.708;2023-08-30T15:50:42;19.00;99.90